Time;durP1;ratioP1;P1;durP2;ratioP2;P2;SDS_P1;SDS_P2;PMS_P1;PMS_P2;Temp;Humidity;BMP_temperature;BMP_pressure;BME280_temperature;BME280_humidity;BME280_pressure;Samples;Min_cycle;Max_cycle;Signal;HPM_P1;HPM_P2
2023/12/24 00:00:00;;;;;;;5.30;4.43;;;10.70;99.90;;;;;;5092321;28;20039;-67
2023/12/24 00:02:25;;;;;;;5.05;3.72;;;10.80;99.90;;;;;;5092491;28;20028;-67
2023/12/24 00:04:51;;;;;;;4.93;4.30;;;10.90;99.90;;;;;;5088515;28;20078;-65
2023/12/24 00:07:17;;;;;;;3.97;3.50;;;10.90;99.90;;;;;;5083489;28;20031;-66
2023/12/24 00:09:43;;;;;;;3.75;3.45;;;10.70;99.90;;;;;;5070880;28;20028;-67
2023/12/24 00:12:09;;;;;;;4.05;3.67;;;10.50;99.90;;;;;;5070025;28;20451;-67
2023/12/24 00:14:36;;;;;;;3.92;3.47;;;10.30;99.90;;;;;;5071494;28;20036;-67
2023/12/24 00:17:02;;;;;;;3.40;3.10;;;10.30;99.90;;;;;;5070546;28;20059;-67
2023/12/24 00:19:28;;;;;;;4.55;3.63;;;10.10;99.90;;;;;;5071136;28;20593;-67
2023/12/24 00:21:54;;;;;;;3.42;2.90;;;10.10;99.90;;;;;;5071507;28;20020;-67
2023/12/24 00:24:19;;;;;;;3.40;3.10;;;10.00;99.90;;;;;;5071688;28;20021;-67
2023/12/24 00:26:45;;;;;;;3.70;3.30;;;10.00;99.90;;;;;;5071385;28;20052;-67
2023/12/24 00:29:11;;;;;;;4.63;3.60;;;10.00;99.90;;;;;;5071113;28;20051;-67
2023/12/24 00:31:37;;;;;;;4.28;3.50;;;10.00;99.90;;;;;;5070729;28;20047;-67
2023/12/24 00:34:02;;;;;;;3.80;3.42;;;10.00;99.90;;;;;;5071072;28;20024;-67
2023/12/24 00:36:28;;;;;;;3.72;3.10;;;9.90;99.90;;;;;;5071478;28;20445;-67
2023/12/24 00:38:53;;;;;;;3.75;2.72;;;9.90;99.90;;;;;;5071747;28;20036;-67
2023/12/24 00:41:19;;;;;;;3.22;2.90;;;9.80;99.90;;;;;;5086120;28;20028;-67
2023/12/24 00:43:45;;;;;;;3.30;3.00;;;9.80;99.90;;;;;;5091794;28;20028;-67
2023/12/24 00:46:15;;;;;;;4.15;3.53;;;9.80;99.90;;;;;;5091282;28;20113;-67
2023/12/24 00:48:41;;;;;;;4.03;3.63;;;9.90;99.90;;;;;;5091307;28;20111;-67
2023/12/24 00:51:07;;;;;;;4.07;3.65;;;9.90;99.90;;;;;;5091556;28;20024;-67
2023/12/24 00:53:33;;;;;;;4.45;4.03;;;9.90;99.90;;;;;;5091501;28;20494;-67
2023/12/24 00:55:58;;;;;;;3.53;3.22;;;9.80;99.90;;;;;;5091762;28;20486;-67
2023/12/24 00:58:26;;;;;;;4.13;3.60;;;9.90;99.90;;;;;;5091405;28;20110;-67
2023/12/24 01:00:52;;;;;;;3.63;3.33;;;9.90;99.90;;;;;;5091370;28;20489;-67
2023/12/24 01:03:18;;;;;;;3.80;3.50;;;9.90;99.90;;;;;;5090958;28;20081;-67
2023/12/24 01:05:43;;;;;;;4.38;3.60;;;10.00;99.90;;;;;;5091378;28;20055;-67
2023/12/24 01:08:09;;;;;;;3.40;3.10;;;9.90;99.90;;;;;;5091292;28;20027;-67
2023/12/24 01:10:35;;;;;;;3.70;3.00;;;10.00;99.90;;;;;;5091026;28;20024;-65
2023/12/24 01:13:00;;;;;;;3.60;3.30;;;10.00;99.90;;;;;;5091372;28;20036;-67
2023/12/24 01:15:26;;;;;;;4.22;3.30;;;10.00;99.90;;;;;;5090515;28;20027;-66
2023/12/24 01:17:52;;;;;;;4.68;3.35;;;10.00;99.90;;;;;;5090886;28;20224;-67
2023/12/24 01:20:21;;;;;;;3.95;3.28;;;10.00;99.90;;;;;;5091080;28;20024;-67
2023/12/24 01:22:47;;;;;;;3.70;3.38;;;10.00;99.90;;;;;;5091088;28;20028;-67
2023/12/24 01:25:13;;;;;;;4.22;3.13;;;10.00;99.90;;;;;;5091562;28;20409;-67
2023/12/24 01:27:38;;;;;;;3.45;3.15;;;10.00;99.90;;;;;;5091083;28;20022;-67
2023/12/24 01:30:05;;;;;;;4.30;3.35;;;10.10;99.90;;;;;;5090935;28;20545;-67
2023/12/24 01:32:31;;;;;;;3.40;3.10;;;10.20;99.90;;;;;;5091148;28;20025;-68
2023/12/24 01:34:58;;;;;;;4.95;4.07;;;10.30;99.90;;;;;;5094236;28;20108;-67
2023/12/24 01:37:24;;;;;;;4.15;3.75;;;10.40;99.90;;;;;;5095160;28;20027;-67
2023/12/24 01:39:49;;;;;;;4.60;3.90;;;10.50;99.90;;;;;;5095465;28;20024;-67
2023/12/24 01:42:15;;;;;;;4.15;3.72;;;10.60;99.90;;;;;;5093888;28;20035;-67
2023/12/24 01:44:41;;;;;;;3.70;3.40;;;10.80;99.90;;;;;;5094844;28;20048;-68
2023/12/24 01:47:07;;;;;;;4.00;3.60;;;10.80;99.90;;;;;;5094512;28;20024;-67
2023/12/24 01:49:33;;;;;;;4.03;3.72;;;10.80;99.90;;;;;;5095319;28;20024;-68
2023/12/24 01:52:00;;;;;;;4.00;3.60;;;10.90;99.90;;;;;;5094837;28;20032;-68
2023/12/24 01:54:26;;;;;;;3.75;3.45;;;10.80;99.90;;;;;;5094876;28;20020;-67
2023/12/24 01:56:52;;;;;;;3.55;3.03;;;10.90;99.90;;;;;;5093339;28;20429;-67
2023/12/24 01:59:18;;;;;;;4.30;3.53;;;11.00;99.90;;;;;;5094685;28;20040;-67
2023/12/24 02:01:46;;;;;;;5.18;4.13;;;10.90;99.90;;;;;;5094432;28;20066;-66
2023/12/24 02:04:12;;;;;;;5.95;4.70;;;10.80;99.90;;;;;;5094543;28;20371;-67
2023/12/24 02:06:38;;;;;;;6.45;4.93;;;10.70;99.90;;;;;;5094609;28;20024;-66
2023/12/24 02:09:05;;;;;;;5.68;5.03;;;10.60;99.90;;;;;;5094525;28;20024;-67
2023/12/24 02:11:30;;;;;;;4.95;4.45;;;10.50;99.90;;;;;;5094585;28;20401;-67
2023/12/24 02:13:56;;;;;;;5.97;4.78;;;10.50;99.90;;;;;;5094811;28;20103;-67
2023/12/24 02:16:23;;;;;;;5.45;4.55;;;10.50;99.90;;;;;;5094261;28;20071;-67
2023/12/24 02:18:49;;;;;;;6.47;4.63;;;10.40;99.90;;;;;;5094377;28;20032;-66
2023/12/24 02:21:15;;;;;;;6.20;4.18;;;10.40;99.90;;;;;;5094350;28;20028;-67
2023/12/24 02:23:40;;;;;;;5.43;4.57;;;10.30;99.90;;;;;;5094402;28;20113;-67
2023/12/24 02:26:15;;;;;;;4.97;4.28;;;10.30;99.90;;;;;;5094158;28;20035;-67
2023/12/24 02:28:44;;;;;;;4.40;4.00;;;10.30;99.90;;;;;;5094500;28;20173;-67
2023/12/24 02:31:12;;;;;;;4.50;4.10;;;10.20;99.90;;;;;;5093868;28;20024;-66
2023/12/24 02:33:41;;;;;;;4.10;3.60;;;10.20;99.90;;;;;;5094040;28;20027;-67
2023/12/24 02:36:12;;;;;;;3.63;3.33;;;10.20;99.90;;;;;;5094042;28;20032;-66
2023/12/24 02:38:37;;;;;;;3.88;3.55;;;10.10;99.90;;;;;;5094082;28;20043;-67
2023/12/24 02:41:04;;;;;;;4.55;4.13;;;10.20;99.90;;;;;;5093798;28;20446;-67
2023/12/24 02:43:30;;;;;;;5.35;4.55;;;10.20;99.90;;;;;;5094293;28;20028;-67
2023/12/24 02:45:56;;;;;;;6.03;5.43;;;10.10;99.90;;;;;;5093279;28;20046;-67
2023/12/24 02:48:22;;;;;;;5.95;5.35;;;10.10;99.90;;;;;;5093839;28;20024;-66
2023/12/24 02:50:48;;;;;;;6.85;5.22;;;10.10;99.90;;;;;;5094056;28;20031;-67
2023/12/24 02:53:14;;;;;;;5.38;4.68;;;10.10;99.90;;;;;;5092475;28;20031;-67
2023/12/24 02:55:39;;;;;;;4.30;3.90;;;10.10;99.90;;;;;;5093587;28;20016;-67
2023/12/24 02:58:05;;;;;;;4.40;3.80;;;10.20;99.90;;;;;;5093328;28;20040;-67
2023/12/24 03:00:31;;;;;;;3.85;3.42;;;10.20;99.90;;;;;;5093385;28;20099;-66
2023/12/24 03:02:56;;;;;;;3.72;3.38;;;10.30;99.90;;;;;;5093329;28;20036;-66
2023/12/24 03:05:22;;;;;;;3.78;3.38;;;10.30;99.90;;;;;;5092653;28;20028;-67
2023/12/24 03:07:47;;;;;;;4.55;3.40;;;10.30;99.90;;;;;;5092635;28;20024;-67
2023/12/24 03:10:13;;;;;;;4.07;3.28;;;10.30;99.90;;;;;;5093444;28;20032;-67
2023/12/24 03:12:39;;;;;;;3.53;3.20;;;10.40;99.90;;;;;;5093364;28;20028;-67
2023/12/24 03:15:06;;;;;;;3.33;3.03;;;10.40;99.90;;;;;;5093263;28;20074;-67
2023/12/24 03:17:31;;;;;;;3.78;3.00;;;10.40;99.90;;;;;;5093172;28;20020;-66
2023/12/24 03:19:57;;;;;;;3.70;3.40;;;10.40;99.90;;;;;;5093350;28;20032;-67
2023/12/24 03:22:22;;;;;;;4.15;3.75;;;10.40;99.90;;;;;;5093307;28;20020;-67
2023/12/24 03:24:48;;;;;;;4.55;3.83;;;10.50;99.90;;;;;;5093024;28;20392;-67
2023/12/24 03:27:14;;;;;;;4.45;3.70;;;10.70;99.90;;;;;;5093055;28;20567;-67
2023/12/24 03:29:40;;;;;;;3.85;3.45;;;10.80;99.90;;;;;;5092735;28;20367;-67
2023/12/24 03:32:06;;;;;;;3.63;2.92;;;10.90;99.90;;;;;;5092973;28;20035;-67
2023/12/24 03:34:32;;;;;;;3.13;2.83;;;11.00;99.90;;;;;;5093464;28;20036;-68
2023/12/24 03:36:57;;;;;;;3.03;2.72;;;11.00;99.90;;;;;;5091605;28;20074;-67
2023/12/24 03:39:23;;;;;;;3.30;3.00;;;11.10;99.90;;;;;;5093050;28;20062;-67
2023/12/24 03:41:49;;;;;;;2.95;2.75;;;11.10;99.90;;;;;;5092930;28;20099;-67
2023/12/24 03:44:14;;;;;;;4.45;2.78;;;11.10;99.90;;;;;;5091990;28;20040;-68
2023/12/24 03:46:40;;;;;;;3.90;2.88;;;11.10;99.90;;;;;;5092750;28;20398;-67
2023/12/24 03:49:09;;;;;;;2.65;2.45;;;11.10;99.90;;;;;;5093185;28;20040;-67
2023/12/24 03:51:34;;;;;;;3.22;2.75;;;11.10;99.90;;;;;;5092594;28;20028;-67
2023/12/24 03:54:00;;;;;;;3.22;2.80;;;11.10;99.90;;;;;;5092554;28;20096;-67
2023/12/24 03:56:26;;;;;;;3.10;2.80;;;11.00;99.90;;;;;;5091949;28;20555;-67
2023/12/24 03:58:51;;;;;;;2.90;2.70;;;10.90;99.90;;;;;;5092295;28;20043;-67
2023/12/24 04:01:17;;;;;;;4.10;3.00;;;10.80;99.90;;;;;;5092516;28;20105;-67
2023/12/24 04:03:44;;;;;;;3.75;2.80;;;10.80;99.90;;;;;;5092418;28;20035;-67
2023/12/24 04:06:15;;;;;;;3.42;3.13;;;10.80;99.90;;;;;;5092294;28;20016;-67
2023/12/24 04:08:41;;;;;;;3.88;3.17;;;10.70;99.90;;;;;;5092608;28;20102;-67
2023/12/24 04:11:16;;;;;;;3.35;3.05;;;10.70;99.90;;;;;;5091987;28;20478;-67
2023/12/24 04:13:42;;;;;;;3.60;3.30;;;10.70;99.90;;;;;;5092340;28;20103;-67
2023/12/24 04:16:08;;;;;;;3.65;3.35;;;10.70;99.90;;;;;;5092096;28;20107;-67
2023/12/24 04:18:34;;;;;;;4.70;3.40;;;10.70;99.90;;;;;;5092142;28;20035;-66
2023/12/24 04:21:00;;;;;;;4.00;3.10;;;10.70;99.90;;;;;;5092541;28;20549;-67
2023/12/24 04:23:25;;;;;;;3.67;3.05;;;10.70;99.90;;;;;;5092073;28;20544;-67
2023/12/24 04:25:51;;;;;;;3.15;2.85;;;10.60;99.90;;;;;;5091752;28;20023;-67
2023/12/24 04:28:17;;;;;;;3.40;3.10;;;10.60;99.90;;;;;;5091960;28;20130;-67
2023/12/24 04:30:43;;;;;;;5.43;3.05;;;10.60;99.90;;;;;;5091868;28;20027;-67
2023/12/24 04:33:08;;;;;;;3.83;3.30;;;10.60;99.90;;;;;;5091987;28;20031;-67
2023/12/24 04:35:34;;;;;;;3.10;2.80;;;10.60;99.90;;;;;;5091784;28;20032;-67
2023/12/24 04:38:00;;;;;;;4.38;2.95;;;10.60;99.90;;;;;;5091938;28;20452;-67
2023/12/24 04:40:25;;;;;;;4.15;2.88;;;10.50;99.90;;;;;;5090106;28;20021;-67
2023/12/24 04:42:51;;;;;;;2.80;2.55;;;10.50;99.90;;;;;;5091708;28;20039;-67
2023/12/24 04:45:17;;;;;;;4.88;2.90;;;10.60;99.90;;;;;;5091862;28;20036;-67
2023/12/24 04:47:42;;;;;;;3.92;3.08;;;10.60;99.90;;;;;;5091717;28;20500;-67
2023/12/24 04:50:08;;;;;;;3.08;2.78;;;10.60;99.90;;;;;;5091302;28;20028;-67
2023/12/24 04:52:37;;;;;;;3.22;2.90;;;10.60;99.90;;;;;;5091528;28;20021;-67
2023/12/24 04:55:04;;;;;;;4.43;3.00;;;10.60;99.90;;;;;;5091273;28;20473;-67
2023/12/24 04:57:30;;;;;;;3.20;2.80;;;10.60;99.90;;;;;;5091744;28;20521;-67
2023/12/24 04:59:56;;;;;;;5.10;3.10;;;10.60;99.90;;;;;;5091420;28;20039;-67
2023/12/24 05:02:22;;;;;;;3.47;3.10;;;10.60;99.90;;;;;;5091514;28;20032;-66
2023/12/24 05:04:49;;;;;;;4.38;3.70;;;10.60;99.90;;;;;;5090251;28;20046;-67
2023/12/24 05:07:14;;;;;;;4.03;3.55;;;10.60;99.90;;;;;;5091057;28;20478;-67
2023/12/24 05:09:41;;;;;;;6.50;3.85;;;10.60;99.90;;;;;;5090271;28;20116;-67
2023/12/24 05:12:08;;;;;;;4.13;3.47;;;10.60;99.90;;;;;;5091264;28;20060;-68
2023/12/24 05:14:37;;;;;;;4.47;3.25;;;10.60;99.90;;;;;;5091328;28;20069;-68
2023/12/24 05:17:03;;;;;;;4.07;3.30;;;10.70;99.90;;;;;;5091559;28;20028;-67
2023/12/24 05:19:29;;;;;;;3.55;3.25;;;10.90;99.90;;;;;;5090734;28;20028;-67
2023/12/24 05:21:54;;;;;;;4.68;3.10;;;11.00;99.90;;;;;;5090888;28;20024;-68
2023/12/24 05:24:20;;;;;;;4.22;3.60;;;11.20;99.90;;;;;;5091289;28;20486;-67
2023/12/24 05:26:46;;;;;;;4.05;3.38;;;11.20;99.90;;;;;;5091100;28;20122;-67
2023/12/24 05:29:12;;;;;;;4.05;3.20;;;11.30;99.90;;;;;;5091054;28;20027;-67
2023/12/24 05:31:41;;;;;;;3.28;2.80;;;11.30;99.90;;;;;;5091565;28;20101;-67
2023/12/24 05:34:08;;;;;;;4.00;3.10;;;11.40;99.90;;;;;;5091043;28;20471;-67
2023/12/24 05:36:38;;;;;;;4.25;2.60;;;11.40;99.90;;;;;;5090880;28;20560;-68
2023/12/24 05:39:05;;;;;;;3.97;2.75;;;11.40;99.90;;;;;;5090543;28;20486;-67
2023/12/24 05:41:31;;;;;;;4.20;2.53;;;11.40;99.90;;;;;;5091151;28;20191;-67
2023/12/24 05:43:57;;;;;;;3.33;2.70;;;11.40;99.90;;;;;;5090703;28;20038;-67
2023/12/24 05:46:25;;;;;;;3.28;2.58;;;11.40;99.90;;;;;;5091040;28;20028;-67
2023/12/24 05:48:51;;;;;;;4.38;2.58;;;11.30;99.90;;;;;;5090927;28;20028;-67
2023/12/24 05:51:16;;;;;;;3.80;2.70;;;11.20;99.90;;;;;;5090700;28;20116;-67
2023/12/24 05:53:42;;;;;;;4.13;3.00;;;11.10;99.90;;;;;;5090460;28;20036;-67
2023/12/24 05:56:08;;;;;;;4.03;3.00;;;11.00;99.90;;;;;;5091226;28;20099;-66
2023/12/24 05:58:34;;;;;;;5.47;3.30;;;10.90;99.90;;;;;;5090755;28;20070;-67
2023/12/24 06:01:00;;;;;;;4.82;3.28;;;10.90;99.90;;;;;;5091223;28;20112;-67
2023/12/24 06:03:26;;;;;;;5.18;3.63;;;10.90;99.90;;;;;;5090755;28;20115;-67
2023/12/24 06:05:51;;;;;;;3.85;3.15;;;10.80;99.90;;;;;;5090799;28;20512;-67
2023/12/24 06:08:17;;;;;;;5.40;3.63;;;10.80;99.90;;;;;;5090845;28;20043;-67
2023/12/24 06:10:44;;;;;;;6.22;4.18;;;10.80;99.90;;;;;;5090519;28;20027;-67
2023/12/24 06:13:10;;;;;;;5.68;3.85;;;10.80;99.90;;;;;;5090758;28;20054;-67
2023/12/24 06:15:36;;;;;;;5.13;4.20;;;10.70;99.90;;;;;;5090611;28;20026;-67
2023/12/24 06:18:02;;;;;;;5.25;3.92;;;10.70;99.90;;;;;;5090573;28;20044;-67
2023/12/24 06:20:32;;;;;;;5.55;3.78;;;10.70;99.90;;;;;;5091398;28;20078;-67
2023/12/24 06:22:57;;;;;;;5.78;3.40;;;10.60;99.90;;;;;;5093916;28;20100;-67
2023/12/24 06:25:23;;;;;;;6.68;4.30;;;10.60;99.90;;;;;;5094515;28;20012;-67
2023/12/24 06:27:49;;;;;;;7.70;4.20;;;10.50;99.90;;;;;;5094336;28;20107;-67
2023/12/24 06:30:15;;;;;;;6.93;3.90;;;10.50;99.90;;;;;;5094293;28;20039;-67
2023/12/24 06:32:45;;;;;;;5.82;3.80;;;10.50;99.90;;;;;;5094266;28;20051;-67
2023/12/24 06:35:10;;;;;;;5.50;3.83;;;10.50;99.90;;;;;;5094320;28;20050;-67
2023/12/24 06:37:36;;;;;;;5.32;3.65;;;10.50;99.90;;;;;;5093682;28;20656;-67
2023/12/24 06:40:03;;;;;;;5.57;3.60;;;10.50;99.90;;;;;;5094039;28;20027;-67
2023/12/24 06:42:29;;;;;;;9.02;4.18;;;10.50;99.90;;;;;;5094178;28;20020;-67
2023/12/24 06:44:55;;;;;;;6.15;4.47;;;10.50;99.90;;;;;;5093657;28;20482;-67
2023/12/24 06:47:20;;;;;;;5.57;4.35;;;10.50;99.90;;;;;;5094235;28;20506;-67
2023/12/24 06:49:46;;;;;;;6.32;4.10;;;10.40;99.90;;;;;;5093749;28;20016;-67
2023/12/24 06:52:12;;;;;;;5.53;3.80;;;10.40;99.90;;;;;;5093554;28;20512;-67
2023/12/24 06:54:37;;;;;;;6.45;4.20;;;10.40;99.90;;;;;;5094082;28;20543;-67
2023/12/24 06:57:06;;;;;;;7.47;4.65;;;10.40;99.90;;;;;;5092390;28;20032;-67
2023/12/24 06:59:32;;;;;;;6.45;4.78;;;10.40;99.90;;;;;;5093476;28;20044;-67
2023/12/24 07:01:57;;;;;;;6.38;4.63;;;10.40;99.90;;;;;;5093697;28;20024;-67
2023/12/24 07:04:23;;;;;;;6.88;4.47;;;10.40;99.90;;;;;;5093925;28;20047;-68
2023/12/24 07:06:48;;;;;;;7.68;5.00;;;10.40;99.90;;;;;;5093003;28;20095;-68
2023/12/24 07:09:14;;;;;;;5.55;4.32;;;10.60;99.90;;;;;;5093887;28;20021;-67
2023/12/24 07:11:40;;;;;;;6.82;4.38;;;10.80;99.90;;;;;;5093460;28;20035;-68
2023/12/24 07:14:05;;;;;;;5.93;4.30;;;10.80;99.90;;;;;;5093326;28;20023;-68
2023/12/24 07:16:31;;;;;;;5.00;3.70;;;10.90;99.90;;;;;;5093288;28;20067;-68
2023/12/24 07:18:57;;;;;;;4.70;3.60;;;11.00;99.90;;;;;;5093300;28;20043;-68
2023/12/24 07:21:23;;;;;;;4.93;3.83;;;11.10;99.90;;;;;;5093002;28;20435;-68
2023/12/24 07:23:49;;;;;;;5.28;3.63;;;11.10;99.90;;;;;;5093175;28;20053;-68
2023/12/24 07:26:15;;;;;;;5.57;3.72;;;11.10;99.90;;;;;;5093031;28;20146;-67
2023/12/24 07:28:40;;;;;;;5.47;4.10;;;11.20;99.90;;;;;;5093154;28;20046;-67
2023/12/24 07:31:06;;;;;;;6.18;3.95;;;11.10;99.90;;;;;;5091611;28;20095;-68
2023/12/24 07:33:32;;;;;;;5.45;4.00;;;11.10;99.90;;;;;;5093288;28;20035;-67
2023/12/24 07:35:58;;;;;;;4.68;4.15;;;11.20;99.90;;;;;;5092724;28;20021;-67
2023/12/24 07:38:29;;;;;;;4.75;3.97;;;11.00;99.90;;;;;;5092916;28;20032;-67
2023/12/24 07:40:55;;;;;;;7.35;4.78;;;10.90;99.90;;;;;;5092727;28;20059;-67
2023/12/24 07:43:20;;;;;;;6.82;4.80;;;10.90;99.90;;;;;;5093068;28;20020;-67
2023/12/24 07:45:46;;;;;;;7.10;4.72;;;10.80;99.90;;;;;;5092382;28;20399;-67
2023/12/24 07:48:12;;;;;;;7.07;4.85;;;10.70;99.90;;;;;;5092673;28;20046;-67
2023/12/24 07:50:37;;;;;;;7.63;5.10;;;10.70;99.90;;;;;;5092284;28;20021;-67
2023/12/24 07:53:03;;;;;;;6.10;4.63;;;10.60;99.90;;;;;;5092690;28;20530;-67
2023/12/24 07:55:29;;;;;;;6.07;4.53;;;10.60;99.90;;;;;;5092921;28;20426;-67
2023/12/24 07:57:55;;;;;;;6.55;5.25;;;10.60;99.90;;;;;;5092414;28;20032;-67
2023/12/24 08:00:21;;;;;;;8.25;5.00;;;10.50;99.90;;;;;;5092668;28;20031;-67
2023/12/24 08:02:47;;;;;;;6.45;5.05;;;10.50;99.90;;;;;;5092460;28;20062;-67
2023/12/24 08:05:13;;;;;;;6.10;5.45;;;10.50;99.90;;;;;;5091931;28;20497;-67
2023/12/24 08:07:39;;;;;;;6.88;5.72;;;10.50;99.90;;;;;;5092408;28;20028;-67
2023/12/24 08:10:07;;;;;;;7.57;5.50;;;10.50;99.90;;;;;;5092331;28;20020;-67
2023/12/24 08:12:33;;;;;;;6.53;5.70;;;10.50;99.90;;;;;;5092290;28;20065;-67
2023/12/24 08:14:58;;;;;;;6.47;5.47;;;10.50;99.90;;;;;;5092208;28;20032;-67
2023/12/24 08:17:24;;;;;;;8.98;5.90;;;10.50;99.90;;;;;;5092029;28;20452;-67
2023/12/24 08:19:49;;;;;;;7.95;5.57;;;10.50;99.90;;;;;;5092041;28;20555;-67
2023/12/24 08:22:15;;;;;;;5.38;4.88;;;10.50;99.90;;;;;;5092009;28;20494;-67
2023/12/24 08:24:41;;;;;;;5.30;4.68;;;10.50;99.90;;;;;;5092016;28;20509;-68
2023/12/24 08:27:06;;;;;;;5.25;4.75;;;10.60;99.90;;;;;;5092365;28;20055;-69
2023/12/24 08:29:32;;;;;;;5.95;4.80;;;10.70;99.90;;;;;;5091796;28;20402;-69
2023/12/24 08:31:58;;;;;;;6.75;4.50;;;10.70;99.90;;;;;;5091421;28;20071;-69
2023/12/24 08:34:24;;;;;;;6.22;4.70;;;10.70;99.90;;;;;;5091136;28;20032;-72
2023/12/24 08:36:49;;;;;;;8.13;5.65;;;10.70;99.90;;;;;;5083990;28;20043;-70
2023/12/24 08:39:15;;;;;;;5.22;4.32;;;10.70;99.90;;;;;;5091453;28;20032;-69
2023/12/24 08:41:41;;;;;;;5.43;4.32;;;10.70;99.90;;;;;;5074035;28;20033;-70
2023/12/24 08:44:07;;;;;;;5.00;4.50;;;10.70;99.90;;;;;;5071137;28;20072;-71
2023/12/24 08:46:32;;;;;;;6.78;4.95;;;10.70;99.90;;;;;;5070882;28;20029;-71
2023/12/24 08:48:58;;;;;;;6.97;4.72;;;10.70;99.90;;;;;;5070143;28;20036;-71
2023/12/24 08:51:24;;;;;;;6.78;4.85;;;10.70;99.90;;;;;;5071648;28;20134;-71
2023/12/24 08:53:49;;;;;;;7.07;5.13;;;10.80;99.90;;;;;;5069987;28;20029;-71
2023/12/24 08:56:15;;;;;;;7.53;6.00;;;10.80;99.90;;;;;;5071027;28;20017;-72
2023/12/24 08:58:41;;;;;;;8.70;6.10;;;10.80;99.90;;;;;;5071029;28;20536;-72
2023/12/24 09:01:06;;;;;;;7.43;5.88;;;11.00;99.90;;;;;;5071088;28;20029;-72
2023/12/24 09:03:32;;;;;;;9.27;5.55;;;11.20;99.90;;;;;;5071328;28;20111;-71
2023/12/24 09:05:58;;;;;;;8.23;6.13;;;11.30;99.90;;;;;;5070978;28;20039;-71
2023/12/24 09:08:23;;;;;;;6.90;5.60;;;11.50;99.90;;;;;;5071156;28;20403;-71
2023/12/24 09:10:49;;;;;;;6.70;5.47;;;11.50;99.90;;;;;;5071574;28;20163;-71
2023/12/24 09:13:15;;;;;;;7.03;5.07;;;11.60;99.90;;;;;;5070922;28;20528;-72
2023/12/24 09:15:40;;;;;;;5.60;4.55;;;11.70;99.90;;;;;;5070665;28;20175;-69
2023/12/24 09:18:06;;;;;;;5.07;4.15;;;11.80;99.90;;;;;;5071080;28;20402;-70
2023/12/24 09:20:31;;;;;;;5.30;4.13;;;11.90;99.90;;;;;;5070688;28;20047;-68
2023/12/24 09:22:57;;;;;;;5.13;4.40;;;12.00;99.90;;;;;;5070519;28;20024;-69
2023/12/24 09:25:23;;;;;;;5.07;4.40;;;12.00;99.90;;;;;;5069960;28;20023;-67
2023/12/24 09:27:48;;;;;;;4.65;4.00;;;12.10;99.90;;;;;;5070974;28;20027;-69
2023/12/24 09:30:14;;;;;;;4.00;3.60;;;12.00;99.90;;;;;;5070168;28;20478;-69
2023/12/24 09:32:43;;;;;;;5.85;3.80;;;12.00;99.90;;;;;;5070787;28;20388;-68
2023/12/24 09:35:09;;;;;;;4.50;3.60;;;11.90;99.90;;;;;;5071103;28;20028;-68
2023/12/24 09:37:34;;;;;;;4.57;3.70;;;11.80;99.90;;;;;;5070879;28;20044;-71
2023/12/24 09:40:00;;;;;;;5.35;3.70;;;11.80;99.90;;;;;;5074069;28;20060;-67
2023/12/24 09:42:26;;;;;;;3.95;3.28;;;11.70;99.90;;;;;;5090996;28;20081;-67
2023/12/24 09:44:51;;;;;;;4.18;3.00;;;11.70;99.90;;;;;;5090279;28;20051;-68
2023/12/24 09:47:17;;;;;;;4.18;2.97;;;11.70;99.90;;;;;;5090902;28;20429;-71
2023/12/24 09:49:43;;;;;;;3.50;2.70;;;11.80;99.90;;;;;;5091421;28;20051;-68
2023/12/24 09:52:09;;;;;;;3.42;2.67;;;11.70;99.90;;;;;;5090879;28;20031;-69
2023/12/24 09:54:35;;;;;;;3.58;2.60;;;11.80;99.90;;;;;;5091564;28;20393;-68
2023/12/24 09:57:01;;;;;;;4.07;2.88;;;11.80;99.90;;;;;;5095009;28;20501;-68
2023/12/24 09:59:27;;;;;;;2.95;2.33;;;11.90;99.90;;;;;;5094413;28;20040;-68
2023/12/24 10:01:52;;;;;;;2.78;2.42;;;11.90;99.90;;;;;;5094732;28;20032;-68
2023/12/24 10:04:18;;;;;;;2.30;2.10;;;11.90;99.90;;;;;;5094941;28;20028;-68
2023/12/24 10:06:56;;;;;;;2.30;2.10;;;11.90;99.90;;;;;;5094571;28;20085;-69
2023/12/24 10:09:24;;;;;;;2.13;1.85;;;11.90;99.90;;;;;;5094785;28;20028;-68
2023/12/24 10:12:06;;;;;;;2.17;1.90;;;11.90;99.90;;;;;;5095044;28;20474;-68
2023/12/24 10:14:31;;;;;;;2.67;2.00;;;12.00;99.90;;;;;;5094336;28;20034;-68
2023/12/24 10:17:00;;;;;;;3.28;2.10;;;12.00;99.90;;;;;;5094440;28;20031;-68
2023/12/24 10:19:27;;;;;;;2.92;2.17;;;12.00;99.90;;;;;;5094463;28;20027;-68
2023/12/24 10:22:02;;;;;;;3.72;2.63;;;12.00;99.90;;;;;;5094574;28;20032;-69
2023/12/24 10:24:35;;;;;;;3.72;2.40;;;12.10;99.90;;;;;;5094522;28;20562;-68
2023/12/24 10:27:10;;;;;;;2.70;2.13;;;12.10;99.90;;;;;;5094226;28;20057;-68
2023/12/24 10:29:37;;;;;;;2.88;1.90;;;12.20;99.90;;;;;;5093969;28;20032;-69
2023/12/24 10:32:03;;;;;;;3.22;1.90;;;12.20;99.90;;;;;;5094177;28;20031;-69
2023/12/24 10:34:30;;;;;;;2.83;1.77;;;12.20;99.90;;;;;;5094686;28;20023;-69
2023/12/24 10:36:59;;;;;;;4.30;2.03;;;12.20;99.90;;;;;;5094081;28;20039;-69
2023/12/24 10:39:26;;;;;;;3.10;1.75;;;12.30;99.90;;;;;;5093999;28;20413;-69
2023/12/24 10:41:58;;;;;;;4.70;2.22;;;12.30;99.90;;;;;;5093881;28;20028;-69
2023/12/24 10:44:24;;;;;;;4.40;2.25;;;12.30;99.90;;;;;;5093567;28;20051;-68
2023/12/24 10:46:50;;;;;;;4.95;2.20;;;12.30;99.90;;;;;;5094358;28;20020;-70
2023/12/24 10:49:16;;;;;;;2.63;2.05;;;12.40;99.90;;;;;;5093995;28;20020;-70
2023/12/24 10:51:42;;;;;;;3.58;2.22;;;12.50;99.90;;;;;;5093929;28;20406;-69
2023/12/24 10:54:08;;;;;;;4.18;2.22;;;12.60;99.90;;;;;;5093850;28;20066;-70
2023/12/24 10:56:51;;;;;;;3.55;2.05;;;12.80;99.90;;;;;;5093963;28;20016;-70
2023/12/24 10:59:30;;;;;;;4.72;1.92;;;12.90;99.90;;;;;;5093699;28;20040;-69
2023/12/24 11:01:56;;;;;;;1.85;1.23;;;13.00;99.90;;;;;;5093727;28;20107;-69
2023/12/24 11:04:48;;;;;;;2.17;1.50;;;13.10;99.90;;;;;;5093362;28;20036;-69
2023/12/24 11:07:32;;;;;;;3.45;1.67;;;13.10;99.90;;;;;;5093215;28;20032;-72
2023/12/24 11:09:59;;;;;;;;;;;13.20;99.90;;;;;;5093884;28;20021;-69
2023/12/24 11:12:39;;;;;;;3.75;1.50;;;13.20;99.90;;;;;;5079525;28;19939;-71
2023/12/24 11:15:08;;;;;;;2.55;1.17;;;13.30;99.90;;;;;;5084497;28;20134;-70
2023/12/24 11:17:33;;;;;;;2.10;1.52;;;13.30;99.90;;;;;;5093071;28;20474;-71
2023/12/24 11:20:18;;;;;;;3.20;1.70;;;13.30;99.90;;;;;;5093221;28;20111;-70
2023/12/24 11:23:02;;;;;;;4.07;1.52;;;13.20;99.90;;;;;;5091842;28;20115;-73
2023/12/24 11:25:37;;;;;;;3.13;1.60;;;13.20;99.90;;;;;;5093279;28;20024;-70
2023/12/24 11:28:04;;;;;;;2.67;1.52;;;13.10;99.90;;;;;;5092530;28;20038;-69
2023/12/24 11:30:50;;;;;;;3.15;1.45;;;13.10;99.90;;;;;;5092791;28;20122;-69
2023/12/24 11:33:28;;;;;;;3.58;1.48;;;13.00;99.90;;;;;;5092557;28;20039;-69
2023/12/24 11:35:54;;;;;;;2.15;1.30;;;13.00;99.90;;;;;;5092980;28;20099;-69
2023/12/24 11:38:35;;;;;;;3.42;1.75;;;13.00;99.90;;;;;;5092567;28;20397;-70
2023/12/24 11:41:07;;;;;;;3.58;1.70;;;13.00;99.90;;;;;;5092113;28;20039;-67
2023/12/24 11:43:33;;;;;;;2.90;1.70;;;12.90;99.90;;;;;;5093086;28;20035;-69
2023/12/24 11:45:59;;;;;;;2.67;1.63;;;12.90;99.90;;;;;;5092505;28;20410;-69
2023/12/24 11:48:29;;;;;;;6.43;5.65;;;12.90;99.90;;;;;;5092690;28;20035;-69
2023/12/24 11:51:08;;;;;;;4.57;2.60;;;12.90;99.90;;;;;;5092038;28;20524;-70
2023/12/24 11:53:38;;;;;;;4.25;3.15;;;13.00;99.90;;;;;;5092418;28;20034;-69
2023/12/24 11:56:10;;;;;;;3.97;2.60;;;13.00;99.90;;;;;;5092020;28;20091;-69
2023/12/24 11:58:40;;;;;;;3.35;2.67;;;13.00;99.90;;;;;;5092199;28;20028;-70
2023/12/24 12:01:06;;;;;;;4.13;2.40;;;13.00;99.90;;;;;;5092220;28;20049;-70
2023/12/24 12:03:33;;;;;;;3.55;1.95;;;13.00;99.90;;;;;;5092894;28;20127;-70
2023/12/24 12:06:00;;;;;;;4.68;3.15;;;13.00;99.90;;;;;;5091921;28;20024;-72
2023/12/24 12:08:27;;;;;;;4.72;3.08;;;13.10;99.90;;;;;;5092055;28;20030;-73
2023/12/24 12:10:53;;;;;;;4.40;3.25;;;13.00;99.90;;;;;;5091727;28;20031;-70
2023/12/24 12:13:19;;;;;;;4.55;2.38;;;13.10;99.90;;;;;;5092487;28;20028;-70
2023/12/24 12:15:44;;;;;;;3.80;2.50;;;13.10;99.90;;;;;;5092339;28;20099;-72
2023/12/24 12:18:11;;;;;;;4.45;2.42;;;13.10;99.90;;;;;;5091338;28;20131;-70
2023/12/24 12:20:36;;;;;;;3.63;2.00;;;13.20;99.90;;;;;;5092350;28;20089;-70
2023/12/24 12:23:02;;;;;;;3.47;2.00;;;13.20;99.90;;;;;;5092436;28;20028;-70
2023/12/24 12:25:28;;;;;;;3.67;1.85;;;13.20;99.90;;;;;;5091190;28;20397;-70
2023/12/24 12:27:54;;;;;;;2.65;1.80;;;13.20;99.90;;;;;;5092068;28;20024;-71
2023/12/24 12:30:21;;;;;;;3.53;1.80;;;13.30;99.90;;;;;;5091527;28;20043;-70
2023/12/24 12:32:47;;;;;;;3.03;1.90;;;13.30;99.90;;;;;;5091967;28;20043;-72
2023/12/24 12:35:13;;;;;;;3.20;1.73;;;13.30;99.90;;;;;;5091637;28;20027;-73
2023/12/24 12:37:39;;;;;;;3.25;1.52;;;13.30;99.90;;;;;;5091600;28;20024;-72
2023/12/24 12:40:06;;;;;;;3.53;1.30;;;13.40;99.90;;;;;;5091641;28;20115;-73
2023/12/24 12:42:31;;;;;;;4.55;1.63;;;13.60;99.90;;;;;;5091677;28;20024;-73
2023/12/24 12:44:58;;;;;;;4.43;1.60;;;13.70;99.90;;;;;;5090053;28;20055;-73